Terminal Aerodrome Forecast
Issued by NWS

Home | Current Version | Previous Version | Text Only | Print | Product List | Glossary On
Versions: 1 2 3 4 5 6 7 8 9 10 11 12 13 14
677
FTUS43 KMPX 251124
TAFRNH
TAF
KRNH 251124Z 2512/2612 32013G21KT P6SM FEW025
     FM252100 28009KT P6SM FEW025 BKN050
     FM260100 21006KT P6SM SCT025 OVC050=

USA.gov is the U.S. government's official web portal to all federal, state and local government web resources and services.